createdAt,value
2019-04-05T00:01:49.134Z,98860.13
2019-04-05T00:04:20.398Z,98859.14
2019-04-05T00:06:52.199Z,98861.46
2019-04-05T00:09:23.978Z,98861.05
2019-04-05T00:11:55.459Z,98865.57
2019-04-05T00:14:27.483Z,98865.57
2019-04-05T00:16:59.002Z,98866.95
2019-04-05T00:19:30.776Z,98866.95
2019-04-05T00:22:02.482Z,98873.48
2019-04-05T00:24:34.170Z,98880.00
2019-04-05T00:27:05.826Z,98892.00
2019-04-05T00:29:37.883Z,98892.00
2019-04-05T00:32:09.981Z,98894.59
2019-04-05T00:34:41.860Z,98888.72
2019-04-05T00:37:14.659Z,98896.11
2019-04-05T00:39:46.452Z,98898.36
2019-04-05T00:42:18.435Z,98912.03
2019-04-05T00:44:50.162Z,98912.89
2019-04-05T00:47:21.717Z,98915.25
2019-04-05T00:49:53.462Z,98919.26
2019-04-05T00:52:25.142Z,98923.80
2019-04-05T00:54:57.023Z,98927.15
2019-04-05T00:57:28.721Z,98929.23
2019-04-05T01:00:03.151Z,98935.61
2019-04-05T01:02:38.542Z,98938.20
2019-04-05T01:05:10.416Z,98938.67
2019-04-05T01:07:42.199Z,98941.04
2019-04-05T01:10:14.486Z,98942.47
2019-04-05T01:12:48.207Z,98948.76
2019-04-05T01:15:20.135Z,98948.76
2019-04-05T01:17:51.790Z,98956.73
2019-04-05T01:20:26.664Z,98961.89
2019-04-05T01:23:00.632Z,98969.22
2019-04-05T01:32:34.728Z,98966.48
2019-04-05T01:35:06.804Z,98965.63
2019-04-05T01:37:39.136Z,98967.80
2019-04-05T01:40:11.288Z,98975.62
2019-04-05T01:42:43.098Z,98975.62
2019-04-05T01:45:14.970Z,98979.45
2019-04-05T01:47:46.550Z,98983.12
2019-04-05T01:50:18.296Z,98990.73
2019-04-05T01:52:50.478Z,98990.73
2019-04-05T01:55:22.042Z,98991.80
2019-04-05T01:57:53.543Z,98992.50
2019-04-05T02:00:25.164Z,98996.16
2019-04-05T02:02:57.450Z,98996.16
2019-04-05T02:05:29.382Z,98998.97
2019-04-05T02:08:01.064Z,99002.78
2019-04-05T02:10:33.359Z,98997.95
2019-04-05T02:13:05.114Z,98997.95
2019-04-05T02:15:38.307Z,99003.47
2019-04-05T02:18:10.006Z,99002.80
2019-04-05T02:20:41.650Z,99002.80
2019-04-05T02:23:13.149Z,99005.07
2019-04-05T02:25:44.775Z,99013.73
2019-04-05T02:28:16.673Z,99009.13
2019-04-05T02:30:48.533Z,99015.06
2019-04-05T02:33:20.825Z,99014.03
2019-04-05T02:35:52.501Z,99017.22
2019-04-05T02:38:24.637Z,99017.66
2019-04-05T02:40:58.744Z,99017.66
2019-04-05T02:43:33.593Z,99025.69
2019-04-05T02:46:22.154Z,99022.69
2019-04-05T02:48:43.042Z,99020.55
2019-04-05T02:51:17.867Z,99018.05
2019-04-05T02:53:50.719Z,99021.62
2019-04-05T02:56:23.687Z,99017.81
2019-04-05T02:58:56.109Z,99021.45
2019-04-05T03:01:28.728Z,99015.57
2019-04-05T03:04:00.773Z,99015.57
2019-04-05T03:06:32.791Z,99030.41
2019-04-05T03:09:06.842Z,99030.41
2019-04-05T03:11:41.197Z,99032.61
2019-04-05T03:14:13.111Z,99033.41
2019-04-05T03:16:47.789Z,99033.41
2019-04-05T03:19:25.599Z,99028.45
2019-04-05T03:22:02.626Z,99033.64
2019-04-05T03:24:37.433Z,99029.09
2019-04-05T03:27:20.624Z,99033.69
2019-04-05T03:29:53.528Z,99033.69
2019-04-05T03:32:26.603Z,99034.23
2019-04-05T03:34:58.493Z,99035.67
2019-04-05T03:37:30.540Z,99038.42
2019-04-05T03:40:02.544Z,99034.08
2019-04-05T03:42:34.356Z,99039.25
2019-04-05T03:45:06.225Z,99033.09
2019-04-05T03:47:38.220Z,99032.20
2019-04-05T03:50:10.143Z,99032.64
2019-04-05T03:52:41.794Z,99033.70
2019-04-05T03:55:14.170Z,99034.54
2019-04-05T03:57:46.075Z,99027.97
2019-04-05T04:00:17.950Z,99033.03
2019-04-05T04:02:50.784Z,99036.22
2019-04-05T04:05:22.904Z,99040.66
2019-04-05T04:07:55.353Z,99043.67
2019-04-05T04:10:29.145Z,99041.88
2019-04-05T04:13:01.055Z,99041.48
2019-04-05T04:15:33.665Z,99041.48
2019-04-05T04:18:05.899Z,99042.19
2019-04-05T04:20:41.135Z,99050.77
2019-04-05T04:23:13.564Z,99052.46
2019-04-05T04:25:45.319Z,99047.41
2019-04-05T04:28:16.994Z,99045.64
2019-04-05T04:30:48.648Z,99043.83
2019-04-05T04:33:20.723Z,99046.30
2019-04-05T04:35:53.468Z,99038.47
2019-04-05T04:38:26.072Z,99036.20
2019-04-05T04:40:58.079Z,99038.56
2019-04-05T04:43:29.740Z,99040.27
2019-04-05T04:46:01.653Z,99043.48
2019-04-05T04:48:34.068Z,99043.09
2019-04-05T04:51:07.278Z,99037.30
2019-04-05T04:53:41.318Z,99040.28
2019-04-05T04:56:14.089Z,99040.28
2019-04-05T04:58:46.927Z,99036.43
2019-04-05T05:01:19.880Z,99030.98
2019-04-05T05:03:52.719Z,99027.17
2019-04-05T05:06:24.369Z,99027.17
2019-04-05T05:08:55.975Z,99026.52
2019-04-05T05:11:28.026Z,99025.97
2019-04-05T05:13:59.832Z,99025.97
2019-04-05T05:16:35.532Z,99018.61
2019-04-05T05:19:08.307Z,99018.61
2019-04-05T05:21:40.683Z,99019.80
2019-04-05T05:24:13.553Z,99017.02
2019-04-05T05:26:45.546Z,99017.02
2019-04-05T05:29:17.252Z,99019.58
2019-04-05T05:31:49.074Z,99023.22
2019-04-05T05:34:20.879Z,99020.86
2019-04-05T05:36:53.036Z,99013.78
2019-04-05T05:39:25.234Z,99012.84
2019-04-05T05:41:56.692Z,98995.64
2019-04-05T05:44:28.429Z,98993.93
2019-04-05T05:46:59.860Z,98991.23
2019-04-05T05:49:31.595Z,98991.23
2019-04-05T05:52:03.870Z,98989.78
2019-04-05T05:54:36.439Z,98981.61
2019-04-05T05:57:10.466Z,98974.19
2019-04-05T05:59:42.099Z,98983.94
2019-04-05T06:02:13.800Z,98972.53
2019-04-05T06:04:45.749Z,98977.02
2019-04-05T06:07:20.662Z,98958.55
2019-04-05T06:09:54.089Z,98958.55
2019-04-05T06:12:26.896Z,98952.06
2019-04-05T06:14:58.734Z,98952.06
2019-04-05T06:17:30.645Z,98950.83
2019-04-05T06:20:02.361Z,98947.72
2019-04-05T06:22:34.028Z,98948.94
2019-04-05T06:25:05.940Z,98947.41
2019-04-05T06:27:38.758Z,98947.41
2019-04-05T06:30:11.324Z,98951.83
2019-04-05T06:32:43.011Z,98946.67
2019-04-05T06:35:14.845Z,98937.76
2019-04-05T06:37:46.697Z,98939.22
2019-04-05T06:40:18.839Z,98939.22
2019-04-05T06:42:50.508Z,98936.22
2019-04-05T06:45:22.548Z,98928.87
2019-04-05T06:47:54.253Z,98931.78
2019-04-05T06:50:25.699Z,98922.03
2019-04-05T06:52:57.210Z,98918.20
2019-04-05T06:55:28.755Z,98911.03
2019-04-05T06:58:00.052Z,98911.03
2019-04-05T07:00:32.032Z,98902.59
2019-04-05T07:03:03.500Z,98902.59
2019-04-05T07:05:34.916Z,98904.13
2019-04-05T07:08:06.802Z,98902.78
2019-04-05T07:10:39.594Z,98897.80
2019-04-05T07:13:11.867Z,98893.67
2019-04-05T07:15:43.637Z,98893.67
2019-04-05T07:18:15.725Z,98877.86
2019-04-05T07:20:47.718Z,98882.58
2019-04-05T07:23:19.387Z,98876.52
2019-04-05T07:25:50.911Z,98867.48
2019-04-05T07:28:25.000Z,98867.35
2019-04-05T07:30:55.736Z,98867.35
2019-04-05T07:33:27.130Z,98863.14
2019-04-05T07:35:59.411Z,98858.45
2019-04-05T07:38:32.190Z,98858.45
2019-04-05T07:41:06.931Z,98850.81
2019-04-05T07:43:38.746Z,98841.28
2019-04-05T07:46:10.853Z,98844.19
2019-04-05T07:48:45.227Z,98833.72
2019-04-05T07:51:16.036Z,98833.72
2019-04-05T07:53:48.181Z,98817.45
2019-04-05T07:56:21.579Z,98817.45
2019-04-05T07:58:54.823Z,98812.87
2019-04-05T08:01:33.843Z,98812.03
2019-04-05T08:04:05.748Z,98800.38
2019-04-05T08:06:40.578Z,98800.38
2019-04-05T08:09:14.275Z,98795.48
2019-04-05T08:11:50.146Z,98783.16
2019-04-05T08:14:23.029Z,98783.90
2019-04-05T08:16:54.602Z,98770.59
2019-04-05T08:19:26.303Z,98770.59
2019-04-05T08:21:57.878Z,98765.08
2019-04-05T08:24:29.468Z,98760.84
2019-04-05T08:27:01.095Z,98764.69
2019-04-05T08:29:35.382Z,98755.50
2019-04-05T08:32:14.384Z,98755.50
2019-04-05T08:34:40.438Z,98749.66
2019-04-05T08:37:12.260Z,98742.97
2019-04-05T08:39:44.125Z,98742.97
2019-04-05T08:42:15.964Z,98730.23
2019-04-05T08:44:47.949Z,98730.23
2019-04-05T08:47:22.311Z,98729.19
2019-04-05T08:49:53.433Z,98724.47
2019-04-05T08:52:27.005Z,98721.67
2019-04-05T08:54:58.567Z,98721.67
2019-04-05T08:57:30.097Z,98717.48
2019-04-05T09:00:02.105Z,98713.66
2019-04-05T09:02:33.802Z,98713.66
2019-04-05T09:05:06.347Z,98713.44
2019-04-05T09:07:37.898Z,98713.58
2019-04-05T09:10:10.558Z,98705.98
2019-04-05T09:12:42.147Z,98698.33
2019-04-05T09:15:14.770Z,98693.20
2019-04-05T09:17:46.271Z,98689.02
2019-04-05T09:20:18.193Z,98696.42
2019-04-05T09:22:49.957Z,98684.66
2019-04-05T09:25:21.934Z,98684.66
2019-04-05T09:27:53.573Z,98674.03
2019-04-05T09:30:25.600Z,98672.19
2019-04-05T09:32:57.451Z,98665.77
2019-04-05T09:35:29.059Z,98654.23
2019-04-05T09:38:00.490Z,98654.23
2019-04-05T09:40:31.977Z,98654.39
2019-04-05T09:43:03.762Z,98646.89
2019-04-05T09:45:35.418Z,98648.61
2019-04-05T09:48:06.787Z,98640.30
2019-04-05T09:50:38.329Z,98640.30
2019-04-05T09:53:10.083Z,98635.82
2019-04-05T09:55:41.525Z,98635.82
2019-04-05T09:58:13.968Z,98628.33
2019-04-05T10:00:45.344Z,98622.20
2019-04-05T10:03:17.933Z,98622.20
2019-04-05T10:05:49.410Z,98622.33
2019-04-05T10:08:22.677Z,98614.84
2019-04-05T10:10:54.661Z,98615.10
2019-04-05T10:13:26.502Z,98613.16
2019-04-05T10:15:58.280Z,98613.80
2019-04-05T10:18:33.194Z,98607.94
2019-04-05T10:21:06.803Z,98607.94
2019-04-05T10:23:38.361Z,98604.78
2019-04-05T10:26:09.981Z,98600.97
2019-04-05T10:28:41.496Z,98596.11
2019-04-05T10:31:13.034Z,98596.11
2019-04-05T10:33:44.865Z,98596.23
2019-04-05T10:36:19.739Z,98592.61
2019-04-05T10:38:50.006Z,98592.27
2019-04-05T10:41:23.144Z,98589.45
2019-04-05T10:43:55.004Z,98580.52
2019-04-05T10:46:26.708Z,98580.52
2019-04-05T10:48:58.578Z,98580.22
2019-04-05T10:51:30.637Z,98580.22
2019-04-05T10:54:04.298Z,98573.83
2019-04-05T10:56:36.136Z,98573.83
2019-04-05T10:59:09.107Z,98573.35
2019-04-05T11:01:40.814Z,98573.35
2019-04-05T11:04:12.323Z,98577.92
2019-04-05T11:06:43.844Z,98570.58
2019-04-05T11:09:15.823Z,98564.63
2019-04-05T11:11:47.254Z,98564.61
2019-04-05T11:14:19.258Z,98564.61
2019-04-05T11:16:58.271Z,98560.02
2019-04-05T11:19:24.293Z,98568.64
2019-04-05T11:21:56.153Z,98565.88
2019-04-05T11:24:27.841Z,98565.88
2019-04-05T11:26:59.402Z,98564.28
2019-04-05T11:29:31.234Z,98564.28
2019-04-05T11:32:03.671Z,98568.05
2019-04-05T11:34:35.291Z,98569.98
2019-04-05T11:37:07.825Z,98574.55
2019-04-05T11:39:39.699Z,98574.55
2019-04-05T11:42:11.708Z,98581.84
2019-04-05T11:44:46.966Z,98578.06
2019-04-05T11:47:19.280Z,98586.14
2019-04-05T11:49:55.096Z,98593.02
2019-04-05T11:52:26.160Z,98601.95
2019-04-05T11:54:57.801Z,98601.77
2019-04-05T11:57:29.080Z,98600.39
2019-04-05T12:00:00.683Z,98603.65
2019-04-05T12:02:53.847Z,98604.41
2019-04-05T12:05:27.159Z,98603.08
2019-04-05T12:08:01.769Z,98615.03
2019-04-05T12:10:32.226Z,98616.05
2019-04-05T12:13:04.067Z,98616.05
2019-04-05T12:15:36.384Z,98623.00
2019-04-05T12:18:08.021Z,98632.26
2019-04-05T12:20:49.406Z,98632.26
2019-04-05T12:23:13.800Z,98634.13
2019-04-05T12:25:45.664Z,98627.01
2019-04-05T12:28:17.433Z,98632.94
2019-04-05T12:30:50.148Z,98638.07
2019-04-05T12:33:21.760Z,98640.52
2019-04-05T12:35:56.436Z,98641.14
2019-04-05T12:38:33.053Z,98689.61
2019-04-05T12:41:05.553Z,98742.65
2019-04-05T12:43:36.799Z,98765.11
2019-04-05T12:46:08.310Z,98765.11
2019-04-05T12:48:39.573Z,98766.10
2019-04-05T12:51:13.185Z,98754.18
2019-04-05T12:53:45.493Z,98754.18
2019-04-05T12:56:16.778Z,98746.62
2019-04-05T12:58:48.472Z,98746.62
2019-04-05T13:01:20.176Z,98733.34
2019-04-05T13:03:52.065Z,98733.34
2019-04-05T13:06:23.485Z,98729.81
2019-04-05T13:08:55.132Z,98721.58
2019-04-05T13:11:27.751Z,98720.00
2019-04-05T13:13:59.359Z,98703.61
2019-04-05T13:16:30.505Z,98704.84
2019-04-05T13:19:01.723Z,98680.80
2019-04-05T13:21:33.258Z,98672.64
2019-04-05T13:24:09.380Z,98664.54
2019-04-05T13:26:41.665Z,98693.34
2019-04-05T13:29:12.213Z,98714.45
2019-04-05T13:31:43.699Z,98729.41
2019-04-05T13:34:18.128Z,98729.41
2019-04-05T13:36:48.936Z,98730.95
2019-04-05T13:39:20.854Z,98718.44
2019-04-05T13:41:52.525Z,98723.13
2019-04-05T13:44:24.390Z,98735.46
2019-04-05T13:46:56.365Z,98772.59
2019-04-05T13:49:27.752Z,98768.43
2019-04-05T13:51:59.652Z,98759.05
2019-04-05T13:54:31.098Z,98759.16
2019-04-05T13:57:02.840Z,98759.98
2019-04-05T13:59:34.733Z,98759.98
2019-04-05T14:02:06.906Z,98769.73
2019-04-05T14:04:38.653Z,98774.84
2019-04-05T14:07:10.113Z,98796.85
2019-04-05T14:09:41.859Z,98796.85
2019-04-05T14:12:13.490Z,98809.57
2019-04-05T14:14:48.627Z,98821.27
2019-04-05T14:17:18.287Z,98835.20
2019-04-05T14:19:49.672Z,98849.03
2019-04-05T14:22:22.508Z,98849.03
2019-04-05T14:24:56.609Z,98840.14
2019-04-05T14:27:27.926Z,98846.12
2019-04-05T14:30:00.583Z,98851.23
2019-04-05T14:32:33.222Z,98843.23
2019-04-05T14:35:08.139Z,98843.23
2019-04-05T14:37:40.208Z,98842.97
2019-04-05T14:40:14.029Z,98847.48
2019-04-05T14:42:46.195Z,98856.34
2019-04-05T14:45:19.201Z,98856.34
2019-04-05T14:47:50.975Z,98861.77
2019-04-05T14:50:22.810Z,98858.09
2019-04-05T14:52:54.777Z,98864.02
2019-04-05T14:55:29.457Z,98871.55
2019-04-05T14:58:00.096Z,98871.64
2019-04-05T15:00:31.759Z,98873.41
2019-04-05T15:03:06.050Z,98881.58
2019-04-05T15:05:37.986Z,98888.84
2019-04-05T15:08:09.562Z,98893.98
2019-04-05T15:10:41.280Z,98890.11
2019-04-05T15:13:13.234Z,98890.11
2019-04-05T15:15:45.795Z,98898.66
2019-04-05T15:18:19.530Z,98898.66
2019-04-05T15:20:50.648Z,98888.20
2019-04-05T15:23:22.410Z,98880.61
2019-04-05T15:25:55.124Z,98876.66
2019-04-05T15:28:27.094Z,98888.13
2019-04-05T15:30:59.043Z,98882.20
2019-04-05T15:33:30.759Z,98882.20
2019-04-05T15:36:05.415Z,98883.22
2019-04-05T15:38:37.079Z,98884.88
2019-04-05T15:41:08.589Z,98886.59
2019-04-05T15:43:40.154Z,98882.58
2019-04-05T15:46:11.517Z,98892.23
2019-04-05T15:48:43.112Z,98892.23
2019-04-05T15:51:14.941Z,98901.95
2019-04-05T15:53:46.333Z,98901.95
2019-04-05T15:56:18.594Z,98904.53
2019-04-05T15:58:52.293Z,98904.53
2019-04-05T16:01:23.481Z,98910.48
2019-04-05T16:03:55.143Z,98920.45
2019-04-05T16:06:26.947Z,98920.45
2019-04-05T16:08:58.614Z,98919.97
2019-04-05T16:11:30.224Z,98919.97
2019-04-05T16:14:02.809Z,98923.86
2019-04-05T16:16:34.501Z,98923.86
2019-04-05T16:19:06.498Z,98924.45
2019-04-05T16:21:37.995Z,98924.91
2019-04-05T16:24:09.561Z,98924.60
2019-04-05T16:26:41.231Z,98924.78
2019-04-05T16:29:12.938Z,98913.83
2019-04-05T16:31:44.579Z,98917.30
2019-04-05T16:34:16.119Z,98917.34
2019-04-05T16:36:48.338Z,98924.56
2019-04-05T16:39:22.357Z,98924.05
2019-04-05T16:41:54.510Z,98933.63
2019-04-05T16:44:26.401Z,98933.63
2019-04-05T16:46:58.003Z,98929.60
2019-04-05T16:49:30.178Z,98936.20
2019-04-05T16:52:02.047Z,98930.37
2019-04-05T16:54:33.866Z,98936.77
2019-04-05T16:57:05.797Z,98933.98
2019-04-05T16:59:37.616Z,98938.75
2019-04-05T17:02:09.156Z,98939.59
2019-04-05T17:04:42.236Z,98943.55
2019-04-05T17:07:13.892Z,98941.70
2019-04-05T17:09:46.509Z,98941.70
2019-04-05T17:12:18.609Z,98937.27
2019-04-05T17:14:49.915Z,98945.02
2019-04-05T17:17:21.849Z,98945.02
2019-04-05T17:19:53.830Z,98949.36
2019-04-05T17:22:25.722Z,98944.95
2019-04-05T17:24:57.199Z,98940.55
2019-04-05T17:27:29.912Z,98938.31
2019-04-05T17:30:01.649Z,98938.31
2019-04-05T17:32:33.795Z,98935.44
2019-04-05T17:35:05.873Z,98942.19
2019-04-05T17:37:38.192Z,98945.47
2019-04-05T17:40:11.403Z,98945.47
2019-04-05T17:42:43.075Z,98950.64
2019-04-05T17:45:14.936Z,98963.95
2019-04-05T17:47:46.574Z,98962.47
2019-04-05T17:50:31.685Z,98962.47
2019-04-05T17:53:12.162Z,98962.00
2019-04-05T17:55:37.522Z,98967.80
2019-04-05T17:58:09.474Z,98968.08
2019-04-05T18:00:41.238Z,98978.44
2019-04-05T18:03:12.976Z,98979.66
2019-04-05T18:05:44.756Z,98983.28
2019-04-05T18:08:16.547Z,98991.71
2019-04-05T18:10:48.166Z,98993.06
2019-04-05T18:13:20.087Z,98993.06
2019-04-05T18:15:52.941Z,99000.44
2019-04-05T18:18:24.937Z,99009.59
2019-04-05T18:20:56.451Z,99021.06
2019-04-05T18:23:28.146Z,99023.12
2019-04-05T18:25:59.940Z,99029.61
2019-04-05T18:28:31.780Z,99028.84
2019-04-05T18:31:03.309Z,99027.91
2019-04-05T18:35:58.073Z,99030.12
2019-04-05T18:38:29.564Z,99030.12
2019-04-05T18:41:01.267Z,99027.77
2019-04-05T18:43:32.937Z,99033.45
2019-04-05T18:46:04.613Z,99036.96
2019-04-05T18:48:39.020Z,99037.82
2019-04-05T18:51:10.484Z,99042.25
2019-04-05T18:53:42.433Z,99054.70
2019-04-05T18:56:14.266Z,99079.09
2019-04-05T18:58:48.946Z,99059.05
2019-04-05T19:01:20.837Z,99064.90
2019-04-05T19:03:52.449Z,99049.39
2019-04-05T19:06:24.052Z,99049.39
2019-04-05T19:08:55.771Z,99043.59
2019-04-05T19:11:27.562Z,99041.31
2019-04-05T19:14:01.232Z,99030.02
2019-04-05T19:16:32.774Z,99030.02
2019-04-05T19:19:04.480Z,99024.69
2019-04-05T19:21:36.138Z,99021.67
2019-04-05T19:24:10.657Z,99010.75
2019-04-05T19:26:43.056Z,99007.70
2019-04-05T19:29:14.672Z,99022.23
2019-04-05T19:49:41.085Z,98968.16
2019-04-05T19:52:12.714Z,98958.72
2019-04-05T19:54:44.466Z,98954.19
2019-04-05T19:57:16.115Z,98954.13
2019-04-05T19:59:48.046Z,98961.22
2019-04-05T20:02:19.750Z,98961.22
2019-04-05T20:04:51.619Z,98957.72
2019-04-05T20:07:23.063Z,98961.05
2019-04-05T20:09:54.850Z,98961.05
2019-04-05T20:12:26.549Z,98954.23
2019-04-05T20:14:58.317Z,98945.70
2019-04-05T20:17:29.658Z,98922.55
2019-04-05T20:20:01.348Z,98913.38
2019-04-05T20:22:32.920Z,98913.38
2019-04-05T20:25:04.799Z,98892.98
2019-04-05T20:27:36.632Z,98876.97
2019-04-05T20:30:08.709Z,98876.97
2019-04-05T20:32:40.394Z,98871.45
2019-04-05T20:35:12.535Z,98866.17
2019-04-05T20:37:44.341Z,98852.29
2019-04-05T20:40:16.031Z,98852.29
2019-04-05T20:42:47.611Z,98856.96
2019-04-05T20:45:19.298Z,98856.96
2019-04-05T20:47:50.766Z,98863.92
2019-04-05T20:50:22.354Z,98860.13
2019-04-05T20:52:53.758Z,98853.04
2019-04-05T20:55:25.475Z,98853.04
2019-04-05T20:57:56.823Z,98840.28
2019-04-05T21:00:28.796Z,98837.61
2019-04-05T21:03:00.198Z,98835.06
2019-04-05T21:05:32.324Z,98832.44
2019-04-05T21:08:03.712Z,98822.93
2019-04-05T21:10:35.139Z,98822.93
2019-04-05T21:13:07.750Z,98814.83
2019-04-05T21:15:39.539Z,98814.83
2019-04-05T21:18:11.119Z,98813.51
2019-04-05T21:20:42.516Z,98808.17
2019-04-05T21:23:14.128Z,98808.55
2019-04-05T21:25:45.894Z,98792.81
2019-04-05T21:28:17.682Z,98792.81
2019-04-05T21:30:49.038Z,98787.93
2019-04-05T21:33:20.734Z,98784.14
2019-04-05T21:35:52.339Z,98782.72
2019-04-05T21:38:23.939Z,98779.13
2019-04-05T21:40:56.749Z,98770.89
2019-04-05T21:43:28.413Z,98777.67
2019-04-05T21:45:59.989Z,98779.00
2019-04-05T21:48:31.570Z,98779.00
2019-04-05T21:51:03.054Z,98781.59
2019-04-05T21:53:34.831Z,98776.47
2019-04-05T21:56:06.447Z,98778.39
2019-04-05T21:58:38.069Z,98785.43
2019-04-05T22:01:09.940Z,98785.43
2019-04-05T22:03:43.458Z,98778.02
2019-04-05T22:06:15.267Z,98784.31
2019-04-05T22:08:47.202Z,98801.06
2019-04-05T22:11:19.265Z,98801.06
2019-04-05T22:13:51.188Z,98809.77
2019-04-05T22:16:22.752Z,98811.56
2019-04-05T22:18:54.430Z,98814.63
2019-04-05T22:21:26.006Z,98810.86
2019-04-05T22:23:58.143Z,98814.73
2019-04-05T22:26:29.863Z,98814.73
2019-04-05T22:29:01.561Z,98808.72
2019-04-05T22:31:33.169Z,98799.22
2019-04-05T22:34:05.080Z,98789.86
2019-04-05T22:36:36.374Z,98781.89
2019-04-05T22:39:09.274Z,98781.89
2019-04-05T22:41:41.172Z,98784.09
2019-04-05T22:44:13.385Z,98786.92
2019-04-05T22:46:45.196Z,98787.63
2019-04-05T22:49:16.771Z,98794.77
2019-04-05T22:51:48.365Z,98797.61
2019-04-05T22:54:20.000Z,98796.29
2019-04-05T22:56:51.843Z,98801.09
2019-04-05T22:59:23.418Z,98796.27
2019-04-05T23:01:55.030Z,98807.77
2019-04-05T23:04:26.634Z,98808.09
2019-04-05T23:06:58.777Z,98808.09
2019-04-05T23:09:30.383Z,98815.98
2019-04-05T23:12:02.293Z,98818.98
2019-04-05T23:14:33.863Z,98818.98
2019-04-05T23:17:05.590Z,98811.98
2019-04-05T23:19:37.482Z,98809.15
2019-04-05T23:22:09.130Z,98805.33
2019-04-05T23:24:40.684Z,98810.29
2019-04-05T23:27:12.375Z,98812.66
2019-04-05T23:29:43.800Z,98804.00
2019-04-05T23:32:15.607Z,98806.33
2019-04-05T23:34:47.214Z,98806.33
2019-04-05T23:37:19.314Z,98807.62
2019-04-05T23:39:50.754Z,98811.15
2019-04-05T23:42:22.266Z,98813.31
2019-04-05T23:44:53.779Z,98811.96
2019-04-05T23:47:25.421Z,98813.64
2019-04-05T23:49:57.216Z,98809.81
2019-04-05T23:52:28.723Z,98819.95
2019-04-05T23:55:00.141Z,98824.30
2019-04-05T23:57:31.846Z,98829.30
